South Pomfret, VT (05067)

7:59 PM EDT on July 01, 2015 (GMT -0400)
Suicide Six Ski Area | | Change Station
CLOSE
Current Station
Personal Weather Station
Location: South Pomfret, VT
Elevation: 850 ft
Nearby Weather Stations

Elev 850 ft 43.68 °N, 72.56 °W | Updated 15 seconds ago

Mostly Cloudy
Mostly Cloudy
64.6 °F
Feels Like 64.6 °F
N
0.0
Wind Variable Wind from SSW
Gusts 2.0 mph

Today
High -- | Low -- °F
--% Chance of Precip.
Yesterday
High -- | Low -- °F
Precip. -- in
5:12 AM 8:35 PM
Full, 100% visible
Pressure 29.67 in
Visibility 10.0 miles
Clouds Few 6000 ft
Dew Point 63 °F
Humidity 95%
Rainfall 0.36 in
Snow Depth Not available.
UV 0 out of 12
Pollen .60 out of 12
Air Quality Not available.
Flu Activity Not available.
METAR KLEB 012353Z 22006KT 10SM FEW060 22/16 A2969 RMK AO2 SLP046 60005 T02170161 10250 20211 51008

More Conditions Fewer Conditions

Pressure 29.67 in
Visibility 10.0 miles
Clouds Few 6000 ft
Dew Point 63 °F
Humidity 95%
Rainfall 0.36 in
Snow Depth Not available.
UV 0 out of 12
Pollen .60 out of 12
Air Quality Not available.
Flu Activity Not available.
METAR KLEB 012353Z 22006KT 10SM FEW060 22/16 A2969 RMK AO2 SLP046 60005 T02170161 10250 20211 51008

More Conditions Fewer Conditions

10-Day Weather Forecast

×

Almanac

Astronomy

Jul. 01, 2015 Rise Set
Actual Time
Civil Twilight
Nautical Twilight
Astronomical Twilight
Moon
Length of Visible Light
Length of Day
Tomorrow will be .
, % of the Moon is Illuminated

Today's Extremes

State Highs State Lows

Community

WunderPhotos

Upload Photos

1,834,348 photos uploaded!

WunderBlogs® & News

Nearby

Air Quality

  Air Quality AQ Index Pollutant
Not available.

Snow Depth

Station Depth Elevation

Earthquake Activity

City Distance Mag. Time & Date
Minimum magnitude displayed is 2.5.

Coastal Water Temperatures

Place Temperature

Stations

Nearby Weather Stations

Station Location Temp. Windchill Dew Point Humidity Wind Precip. Elev Updated Type